Time;durP1;ratioP1;P1;durP2;ratioP2;P2;SDS_P1;SDS_P2;PMS_P1;PMS_P2;Temp;Humidity;BMP_temperature;BMP_pressure;BME280_temperature;BME280_humidity;BME280_pressure;Samples;Min_cycle;Max_cycle;Signal;HPM_P1;HPM_P2
2021/12/18 00:01:48;;;;;;;8.00;3.90;;;8.10;99.90;;;;;;4955010;28;20495;-53
2021/12/18 00:04:13;;;;;;;8.23;3.53;;;8.10;99.90;;;;;;4954999;28;20043;-54
2021/12/18 00:06:39;;;;;;;11.10;3.53;;;8.10;99.90;;;;;;4957192;28;20491;-54
2021/12/18 00:09:07;;;;;;;11.65;3.78;;;8.10;99.90;;;;;;4955829;28;20050;-54
2021/12/18 00:11:32;;;;;;;8.13;3.85;;;8.10;99.90;;;;;;4955133;28;20480;-54
2021/12/18 00:13:58;;;;;;;6.93;3.15;;;8.00;99.90;;;;;;4954167;28;20035;-51
2021/12/18 00:16:23;;;;;;;7.85;3.20;;;8.00;99.90;;;;;;4953790;29;20086;-51
2021/12/18 00:18:51;;;;;;;6.82;3.13;;;8.00;99.90;;;;;;4955195;28;20047;-53
2021/12/18 00:21:19;;;;;;;6.57;3.00;;;8.00;99.90;;;;;;4955370;28;20035;-53
2021/12/18 00:23:46;;;;;;;6.13;3.22;;;8.00;99.90;;;;;;4955554;28;20043;-51
2021/12/18 00:26:11;;;;;;;6.57;2.92;;;8.00;99.90;;;;;;4955175;28;20058;-54
2021/12/18 00:28:37;;;;;;;9.50;3.80;;;8.00;99.90;;;;;;4955036;28;20043;-54
2021/12/18 00:31:03;;;;;;;7.88;3.20;;;8.00;99.90;;;;;;4954214;28;20043;-51
2021/12/18 00:33:28;;;;;;;5.57;2.60;;;8.00;99.90;;;;;;4953049;29;20047;-53
2021/12/18 00:35:54;;;;;;;5.95;2.50;;;8.00;99.90;;;;;;4955584;28;20558;-53
2021/12/18 00:38:27;;;;;;;4.20;2.30;;;7.90;99.90;;;;;;4955509;28;20547;-52
2021/12/18 00:41:11;;;;;;;5.18;2.60;;;7.90;99.90;;;;;;4954175;28;20074;-53
2021/12/18 00:44:01;;;;;;;5.05;2.53;;;7.90;99.90;;;;;;4955106;28;20500;-54
2021/12/18 00:46:24;;;;;;;4.65;2.50;;;8.00;99.90;;;;;;4954797;28;20054;-51
2021/12/18 00:48:50;;;;;;;3.92;2.13;;;7.90;99.90;;;;;;4954909;28;20460;-54
2021/12/18 00:51:16;;;;;;;4.03;2.30;;;7.90;99.90;;;;;;4955692;28;20039;-53
2021/12/18 00:53:41;;;;;;;4.82;2.13;;;7.90;99.90;;;;;;4954292;28;20035;-53
2021/12/18 00:56:07;;;;;;;4.95;2.10;;;7.80;99.90;;;;;;4954647;28;20547;-52
2021/12/18 00:58:32;;;;;;;4.80;2.50;;;7.80;99.90;;;;;;4953700;29;20122;-54
2021/12/18 01:00:58;;;;;;;6.32;2.47;;;7.80;99.90;;;;;;4953016;29;20415;-53
2021/12/18 01:03:24;;;;;;;5.13;2.35;;;7.70;99.90;;;;;;4954915;28;20066;-52
2021/12/18 01:05:49;;;;;;;5.43;2.63;;;7.70;99.90;;;;;;4954956;28;20090;-51
2021/12/18 01:08:16;;;;;;;5.20;2.72;;;7.80;99.90;;;;;;4954897;28;20046;-51
2021/12/18 01:13:19;;;;;;;4.80;2.08;;;7.80;99.90;;;;;;4954210;28;20090;-51
2021/12/18 01:15:49;;;;;;;4.55;2.30;;;7.70;99.90;;;;;;4954143;28;20124;-53
2021/12/18 01:23:44;;;;;;;4.82;2.40;;;7.80;99.90;;;;;;4954749;28;20102;-53
2021/12/18 01:26:10;;;;;;;6.35;2.30;;;7.80;99.90;;;;;;4954860;28;20047;-54
2021/12/18 01:28:35;;;;;;;3.40;1.83;;;7.70;99.90;;;;;;4954084;28;20471;-51
2021/12/18 01:31:02;;;;;;;3.35;1.83;;;7.70;99.90;;;;;;4954309;28;20035;-54
2021/12/18 01:33:27;;;;;;;3.08;1.83;;;7.70;99.90;;;;;;4954182;28;20412;-54
2021/12/18 01:35:53;;;;;;;4.10;1.83;;;7.70;99.90;;;;;;4953875;28;20066;-52
2021/12/18 01:38:21;;;;;;;3.50;1.70;;;7.70;99.90;;;;;;4954593;28;20126;-53
2021/12/18 01:40:47;;;;;;;5.05;1.83;;;7.60;99.90;;;;;;4954172;28;20050;-51
2021/12/18 01:51:24;;;;;;;3.70;1.80;;;7.60;99.90;;;;;;4963479;28;20530;-54
2021/12/18 01:53:55;;;;;;;4.70;2.00;;;7.60;99.90;;;;;;4953772;28;20052;-53
2021/12/18 01:56:22;;;;;;;4.93;2.13;;;7.50;99.90;;;;;;4968382;28;20039;-53
2021/12/18 01:58:48;;;;;;;5.00;2.00;;;7.50;99.90;;;;;;4953763;28;20523;-52
2021/12/18 02:01:16;;;;;;;10.82;2.30;;;7.50;99.90;;;;;;4953949;28;20050;-52
2021/12/18 02:03:42;;;;;;;10.75;2.10;;;7.50;99.90;;;;;;4953886;28;20042;-52
2021/12/18 02:06:08;;;;;;;12.68;2.53;;;7.50;99.90;;;;;;4954059;28;20207;-53
2021/12/18 02:08:35;;;;;;;4.93;2.47;;;7.40;99.90;;;;;;4953426;28;20578;-53
2021/12/18 02:14:04;;;;;;;5.07;1.83;;;7.40;99.90;;;;;;4953846;28;20408;-51
2021/12/18 02:22:01;;;;;;;7.18;1.98;;;7.30;99.90;;;;;;4953698;28;20054;-53
2021/12/18 02:24:29;;;;;;;5.97;2.10;;;7.30;99.90;;;;;;4953323;28;20062;-53
2021/12/18 02:26:55;;;;;;;9.20;1.85;;;7.20;99.90;;;;;;4953688;28;20039;-54
2021/12/18 02:29:21;;;;;;;6.20;1.83;;;7.20;99.90;;;;;;4953575;29;20046;-51
2021/12/18 02:31:47;;;;;;;4.03;1.58;;;7.10;99.90;;;;;;4953481;28;20047;-51
2021/12/18 02:34:23;;;;;;;6.47;2.03;;;7.20;99.90;;;;;;4953364;28;20070;-51
2021/12/18 02:36:49;;;;;;;5.00;2.17;;;7.10;99.90;;;;;;4953679;28;20116;-52
2021/12/18 02:41:56;;;;;;;6.90;2.40;;;7.10;99.90;;;;;;4953402;28;20043;-52
2021/12/18 02:44:21;;;;;;;4.13;2.20;;;7.20;99.90;;;;;;4953562;28;20436;-52
2021/12/18 02:46:47;;;;;;;4.03;2.17;;;7.10;99.90;;;;;;4953543;28;20146;-52
2021/12/18 02:49:15;;;;;;;8.68;2.35;;;7.20;99.90;;;;;;4953732;28;20039;-51
2021/12/18 02:51:42;;;;;;;5.93;2.25;;;7.10;99.90;;;;;;4950860;28;20047;-52
2021/12/18 02:54:08;;;;;;;3.95;2.30;;;7.10;99.90;;;;;;4934301;29;20044;-53
2021/12/18 02:56:34;;;;;;;4.97;2.42;;;7.10;99.90;;;;;;4946550;29;20046;-53
2021/12/18 02:59:06;;;;;;;12.75;2.38;;;7.10;99.90;;;;;;4953360;28;20043;-54
2021/12/18 03:01:33;;;;;;;5.95;2.35;;;7.10;99.90;;;;;;4953683;28;20039;-51
2021/12/18 03:04:02;;;;;;;12.60;2.38;;;7.20;99.90;;;;;;4953454;28;20054;-52
2021/12/18 03:06:38;;;;;;;6.93;2.50;;;7.10;99.90;;;;;;4952701;28;20039;-52
2021/12/18 03:20:46;;;;;;;13.18;2.25;;;7.10;99.90;;;;;;4954086;28;20196;-52
2021/12/18 03:25:32;;;;;;;7.10;2.13;;;6.90;99.90;;;;;;4956192;28;20106;-51
2021/12/18 03:28:00;;;;;;;10.35;2.38;;;7.00;99.90;;;;;;4956327;28;20070;-52
2021/12/18 03:30:26;;;;;;;13.27;2.50;;;6.90;99.90;;;;;;4949070;28;20051;-54
2021/12/18 03:32:52;;;;;;;8.70;2.83;;;7.00;99.90;;;;;;4956529;28;20046;-54
2021/12/18 03:35:19;;;;;;;17.60;3.30;;;7.00;99.90;;;;;;4955417;28;20406;-52
2021/12/18 03:37:44;;;;;;;12.75;2.90;;;7.00;99.90;;;;;;4956456;28;20519;-54
2021/12/18 03:40:14;;;;;;;14.77;2.78;;;7.00;99.90;;;;;;4955265;28;20081;-52
2021/12/18 03:42:39;;;;;;;36.35;3.72;;;7.00;99.90;;;;;;4955551;29;20115;-53
2021/12/18 03:45:08;;;;;;;15.63;3.55;;;7.00;99.90;;;;;;4956275;28;20118;-51
2021/12/18 03:47:34;;;;;;;34.42;3.95;;;7.00;99.90;;;;;;4955810;28;20105;-53
2021/12/18 03:50:00;;;;;;;14.35;3.40;;;7.00;99.90;;;;;;4955770;28;20059;-52
2021/12/18 03:52:26;;;;;;;18.25;3.70;;;6.90;99.90;;;;;;4954537;29;20047;-54
2021/12/18 03:54:52;;;;;;;14.85;3.25;;;7.00;99.90;;;;;;4956004;28;20043;-52
2021/12/18 03:57:17;;;;;;;6.00;2.78;;;7.00;99.90;;;;;;4955093;28;20484;-53
2021/12/18 03:59:43;;;;;;;5.00;2.50;;;6.90;99.90;;;;;;4956027;28;20118;-54
2021/12/18 04:02:09;;;;;;;5.38;2.10;;;6.90;99.90;;;;;;4955289;28;20035;-52
2021/12/18 04:04:35;;;;;;;6.60;1.95;;;6.90;99.90;;;;;;4956161;28;20054;-54
2021/12/18 04:07:01;;;;;;;3.90;1.90;;;6.90;99.90;;;;;;4956117;28;20495;-53
2021/12/18 04:09:31;;;;;;;3.70;1.80;;;6.90;99.90;;;;;;4955996;28;20074;-54
2021/12/18 04:11:57;;;;;;;6.05;2.13;;;6.90;99.90;;;;;;4955917;28;20416;-53
2021/12/18 04:14:22;;;;;;;5.47;2.13;;;6.90;99.90;;;;;;4956028;28;20122;-53
2021/12/18 04:16:48;;;;;;;4.03;2.20;;;7.00;99.90;;;;;;4955758;28;20114;-54
2021/12/18 04:19:13;;;;;;;4.60;2.20;;;6.90;99.90;;;;;;4955998;28;20036;-53
2021/12/18 04:21:39;;;;;;;4.18;2.13;;;6.90;99.90;;;;;;4956071;28;20039;-52
2021/12/18 04:24:05;;;;;;;8.27;1.98;;;6.90;99.90;;;;;;4955476;28;20051;-54
2021/12/18 04:26:32;;;;;;;4.97;2.08;;;6.90;99.90;;;;;;4955811;28;20050;-54
2021/12/18 04:28:58;;;;;;;4.93;2.40;;;6.80;99.90;;;;;;4955595;28;20047;-54
2021/12/18 04:31:25;;;;;;;3.72;2.05;;;6.80;99.90;;;;;;4954449;28;20054;-54
2021/12/18 04:33:50;;;;;;;6.85;2.78;;;6.80;99.90;;;;;;4954934;28;20055;-54
2021/12/18 04:36:16;;;;;;;5.85;2.65;;;6.80;99.90;;;;;;4955614;28;20503;-54
2021/12/18 04:38:42;;;;;;;19.05;4.18;;;6.80;99.90;;;;;;4955135;28;20051;-53
2021/12/18 04:41:09;;;;;;;7.03;2.95;;;6.80;99.90;;;;;;4955291;28;20074;-52
2021/12/18 04:43:35;;;;;;;5.25;2.80;;;6.80;99.90;;;;;;4954815;28;20055;-54
2021/12/18 04:46:01;;;;;;;11.57;2.70;;;6.70;99.90;;;;;;4955509;28;20046;-54
2021/12/18 04:48:27;;;;;;;14.82;3.00;;;6.70;99.90;;;;;;4955411;28;20416;-53
2021/12/18 04:50:53;;;;;;;9.65;2.95;;;6.70;99.90;;;;;;4955015;28;20043;-51
2021/12/18 04:53:18;;;;;;;8.45;2.97;;;6.70;99.90;;;;;;4954532;28;20047;-54
2021/12/18 04:55:44;;;;;;;5.47;3.00;;;6.60;99.90;;;;;;4955087;28;20397;-53
2021/12/18 04:58:09;;;;;;;6.90;2.83;;;6.70;99.90;;;;;;4954794;28;20054;-54
2021/12/18 05:00:40;;;;;;;6.57;2.75;;;6.60;99.90;;;;;;4954444;28;20031;-52
2021/12/18 05:03:11;;;;;;;5.20;2.50;;;6.60;99.90;;;;;;4954814;28;20106;-53
2021/12/18 05:05:36;;;;;;;5.47;2.90;;;6.60;99.90;;;;;;4955144;28;20039;-51
2021/12/18 05:08:03;;;;;;;5.57;2.72;;;6.60;99.90;;;;;;4954954;28;20555;-53
2021/12/18 05:10:29;;;;;;;6.55;3.10;;;6.60;99.90;;;;;;4954613;28;20371;-52
2021/12/18 05:12:54;;;;;;;4.22;2.20;;;6.60;99.90;;;;;;4954416;28;20058;-54
2021/12/18 05:15:20;;;;;;;3.85;2.20;;;6.60;99.90;;;;;;4954624;28;20249;-54
2021/12/18 05:17:45;;;;;;;4.63;1.85;;;6.60;99.90;;;;;;4954757;28;20039;-54
2021/12/18 05:20:12;;;;;;;4.00;1.98;;;6.60;99.90;;;;;;4954388;28;20118;-53
2021/12/18 05:22:38;;;;;;;5.25;1.98;;;6.60;99.90;;;;;;4954305;28;20043;-54
2021/12/18 05:25:05;;;;;;;3.17;1.40;;;6.60;99.90;;;;;;4954388;28;20054;-54
2021/12/18 05:27:30;;;;;;;3.00;1.40;;;6.60;99.90;;;;;;4954397;28;20047;-53
2021/12/18 05:29:56;;;;;;;3.83;1.42;;;6.50;99.90;;;;;;4954471;28;20046;-54
2021/12/18 05:32:21;;;;;;;3.92;1.80;;;6.50;99.90;;;;;;4954286;28;20054;-54
2021/12/18 05:34:47;;;;;;;5.28;1.98;;;6.50;99.90;;;;;;4954682;28;20055;-54
2021/12/18 05:37:18;;;;;;;5.13;1.95;;;6.40;99.90;;;;;;4954888;28;20071;-52
2021/12/18 05:39:44;;;;;;;4.85;1.58;;;6.50;99.90;;;;;;4953272;29;20043;-54
2021/12/18 05:42:10;;;;;;;4.22;1.70;;;6.40;99.90;;;;;;4954564;28;20452;-54
2021/12/18 05:44:35;;;;;;;4.35;1.80;;;6.40;99.90;;;;;;4953711;28;20043;-54
2021/12/18 05:47:02;;;;;;;4.18;1.67;;;6.40;99.90;;;;;;4953975;28;20054;-54
2021/12/18 05:49:28;;;;;;;8.38;1.63;;;6.40;99.90;;;;;;4954330;28;20519;-54
2021/12/18 05:51:54;;;;;;;3.80;1.73;;;6.40;99.90;;;;;;4953595;28;20046;-54
2021/12/18 05:54:19;;;;;;;6.38;1.70;;;6.50;99.90;;;;;;5077806;23;20045;-47
2021/12/18 05:56:45;;;;;;;5.20;1.60;;;6.50;99.90;;;;;;5022784;28;20477;-50
2021/12/18 05:59:10;;;;;;;6.95;1.70;;;6.40;99.90;;;;;;5016532;28;20073;-50
2021/12/18 06:01:36;;;;;;;3.42;1.50;;;6.50;99.90;;;;;;5020469;28;20044;-52
2021/12/18 06:04:02;;;;;;;7.20;1.70;;;6.50;99.90;;;;;;5026081;28;20045;-53
2021/12/18 06:06:30;;;;;;;5.78;2.00;;;6.50;99.90;;;;;;5032235;28;20068;-50
2021/12/18 06:08:55;;;;;;;3.78;1.67;;;6.50;99.90;;;;;;5014952;28;20053;-49
2021/12/18 06:11:22;;;;;;;5.72;2.00;;;6.50;99.90;;;;;;5011944;28;20445;-52
2021/12/18 06:13:50;;;;;;;8.38;1.98;;;6.50;99.90;;;;;;5020016;28;20109;-53
2021/12/18 06:16:20;;;;;;;6.78;1.70;;;6.40;99.90;;;;;;4994714;28;20058;-50
2021/12/18 06:18:49;;;;;;;4.22;1.52;;;6.40;99.90;;;;;;5012580;28;20037;-51
2021/12/18 06:21:16;;;;;;;8.25;1.90;;;6.40;99.90;;;;;;5011546;28;20129;-52
2021/12/18 06:23:44;;;;;;;5.75;2.10;;;6.40;99.90;;;;;;4995819;28;20056;-52
2021/12/18 06:26:09;;;;;;;4.90;1.90;;;6.40;99.90;;;;;;4964462;28;20042;-51
2021/12/18 06:28:35;;;;;;;4.60;1.80;;;6.40;99.90;;;;;;5011223;28;20056;-51
2021/12/18 06:31:01;;;;;;;5.10;1.80;;;6.40;99.90;;;;;;5011335;28;20040;-51
2021/12/18 06:33:27;;;;;;;5.95;1.98;;;6.40;99.90;;;;;;5009233;28;20040;-48
2021/12/18 06:35:53;;;;;;;5.93;1.85;;;6.50;99.90;;;;;;4993115;28;20038;-49
2021/12/18 06:38:19;;;;;;;4.38;1.90;;;6.50;99.90;;;;;;5011611;28;20087;-48
2021/12/18 06:40:44;;;;;;;9.70;2.00;;;6.50;99.90;;;;;;5016231;28;21342;-49
2021/12/18 06:43:10;;;;;;;7.57;2.15;;;6.40;99.90;;;;;;5019395;28;20168;-50
2021/12/18 06:45:36;;;;;;;8.73;2.10;;;6.50;99.90;;;;;;5001045;28;20037;-50
2021/12/18 06:48:02;;;;;;;5.80;2.15;;;6.50;99.90;;;;;;4987600;28;20391;-52
2021/12/18 06:50:28;;;;;;;6.13;2.25;;;6.50;99.90;;;;;;4997638;28;20169;-50
2021/12/18 06:52:54;;;;;;;6.32;2.13;;;6.50;99.90;;;;;;4997280;28;20511;-50
2021/12/18 06:55:20;;;;;;;7.53;2.30;;;6.60;99.90;;;;;;4998649;28;20030;-51
2021/12/18 06:57:46;;;;;;;6.30;2.15;;;6.60;99.90;;;;;;5010681;28;20470;-50
2021/12/18 07:00:14;;;;;;;5.95;2.13;;;6.60;99.90;;;;;;4999923;28;20035;-49
2021/12/18 07:02:41;;;;;;;7.80;2.53;;;6.60;99.90;;;;;;4971926;28;20030;-50
2021/12/18 07:05:08;;;;;;;8.55;2.33;;;6.60;99.90;;;;;;5009881;28;20041;-50
2021/12/18 07:07:34;;;;;;;7.53;2.38;;;6.60;99.90;;;;;;5000226;28;20123;-50
2021/12/18 07:10:00;;;;;;;8.68;2.40;;;6.60;99.90;;;;;;5002870;28;20044;-50
2021/12/18 07:12:26;;;;;;;8.68;2.65;;;6.60;99.90;;;;;;5007488;28;20090;-49
2021/12/18 07:14:52;;;;;;;6.75;2.67;;;6.60;99.90;;;;;;5003003;28;20441;-52
2021/12/18 07:17:18;;;;;;;10.88;2.45;;;6.60;99.90;;;;;;5001327;28;20042;-51
2021/12/18 07:19:43;;;;;;;7.35;2.20;;;6.60;99.90;;;;;;5002272;28;20486;-49
2021/12/18 07:22:09;;;;;;;9.45;2.90;;;6.60;99.90;;;;;;4986031;28;20034;-50
2021/12/18 07:24:35;;;;;;;7.80;2.45;;;6.60;99.90;;;;;;5006556;28;20034;-51
2021/12/18 07:27:00;;;;;;;7.70;2.80;;;6.60;99.90;;;;;;5014578;28;20486;-50
2021/12/18 07:29:26;;;;;;;6.22;2.30;;;6.60;99.90;;;;;;5014168;28;20512;-48
2021/12/18 07:31:52;;;;;;;7.20;2.58;;;6.60;99.90;;;;;;5013189;28;20033;-50
2021/12/18 07:34:18;;;;;;;7.65;2.45;;;6.60;99.90;;;;;;4985869;28;20534;-49
2021/12/18 07:36:44;;;;;;;7.57;2.60;;;6.90;99.90;;;;;;5009468;28;20038;-50
2021/12/18 07:39:11;;;;;;;8.15;2.35;;;6.60;99.90;;;;;;5010633;28;20092;-50
2021/12/18 07:41:37;;;;;;;7.68;2.35;;;6.70;99.90;;;;;;5003898;28;20077;-49
2021/12/18 07:44:06;;;;;;;8.07;2.70;;;6.70;99.90;;;;;;4999219;28;20053;-51
2021/12/18 07:46:35;;;;;;;8.00;2.67;;;6.70;99.90;;;;;;5012122;28;20042;-52
2021/12/18 07:49:01;;;;;;;8.57;2.58;;;6.70;99.90;;;;;;5014486;28;20048;-49
2021/12/18 07:51:27;;;;;;;9.82;2.90;;;6.70;99.90;;;;;;4996679;28;20041;-49
2021/12/18 07:53:52;;;;;;;9.10;3.17;;;6.70;99.90;;;;;;5013892;28;20061;-48
2021/12/18 07:56:19;;;;;;;10.68;3.30;;;6.60;99.90;;;;;;5014695;28;20060;-49
2021/12/18 07:58:45;;;;;;;9.07;2.97;;;6.70;99.90;;;;;;5014463;28;20038;-49
2021/12/18 08:01:10;;;;;;;8.77;3.40;;;6.80;99.90;;;;;;5014111;28;20452;-51
2021/12/18 08:03:36;;;;;;;9.35;3.08;;;6.70;99.90;;;;;;5013675;28;20099;-52
2021/12/18 08:06:02;;;;;;;10.02;3.03;;;6.70;99.90;;;;;;5013193;28;20048;-49
2021/12/18 08:08:28;;;;;;;8.52;3.22;;;6.70;99.90;;;;;;5014110;28;20045;-52
2021/12/18 08:10:54;;;;;;;8.98;3.65;;;6.70;99.90;;;;;;5014082;28;20045;-49
2021/12/18 08:13:19;;;;;;;9.70;3.55;;;6.80;99.90;;;;;;5013624;28;20505;-49
2021/12/18 08:15:46;;;;;;;8.75;4.05;;;6.80;99.90;;;;;;4996543;28;20073;-49
2021/12/18 08:18:11;;;;;;;12.50;4.38;;;6.80;99.90;;;;;;4980167;28;20100;-49
2021/12/18 08:20:37;;;;;;;9.80;4.40;;;6.80;99.90;;;;;;5013633;28;20050;-49
2021/12/18 08:23:03;;;;;;;9.38;4.00;;;6.80;99.90;;;;;;5013739;28;20041;-49
2021/12/18 08:25:30;;;;;;;10.35;4.53;;;6.80;99.90;;;;;;5014003;28;20042;-48
2021/12/18 08:28:00;;;;;;;12.32;4.72;;;6.80;99.90;;;;;;5013678;28;20533;-49
2021/12/18 08:30:30;;;;;;;10.02;4.20;;;6.80;99.90;;;;;;5013509;28;20046;-49
2021/12/18 08:32:58;;;;;;;11.70;4.45;;;6.80;99.90;;;;;;5013239;28;20509;-49
2021/12/18 08:35:25;;;;;;;13.45;5.00;;;6.80;99.90;;;;;;5013550;28;20169;-49
2021/12/18 08:37:52;;;;;;;12.35;3.90;;;6.80;99.90;;;;;;5013614;28;20525;-51
2021/12/18 08:40:18;;;;;;;10.60;4.68;;;6.90;99.90;;;;;;5013566;28;20494;-49
2021/12/18 08:42:44;;;;;;;12.52;4.65;;;6.90;99.90;;;;;;4995917;28;20065;-50
2021/12/18 08:45:11;;;;;;;13.70;5.30;;;6.90;99.90;;;;;;5013595;28;20490;-49
2021/12/18 08:47:38;;;;;;;11.50;4.80;;;7.00;99.90;;;;;;4995423;28;20524;-49
2021/12/18 08:50:06;;;;;;;11.48;5.65;;;7.00;99.90;;;;;;5013474;28;20486;-49
2021/12/18 08:52:32;;;;;;;12.25;5.03;;;7.00;99.90;;;;;;5013101;28;20449;-49
2021/12/18 08:54:59;;;;;;;13.18;5.00;;;7.00;99.90;;;;;;5013230;28;20080;-49
2021/12/18 08:57:26;;;;;;;14.25;4.78;;;7.00;99.90;;;;;;5012788;28;20052;-50
2021/12/18 08:59:51;;;;;;;11.55;5.20;;;7.00;99.90;;;;;;5011637;28;20102;-49
2021/12/18 09:02:17;;;;;;;13.55;5.22;;;7.00;99.90;;;;;;5013006;28;20038;-51
2021/12/18 09:04:43;;;;;;;15.80;5.75;;;7.10;99.90;;;;;;4995561;28;20088;-50
2021/12/18 09:07:09;;;;;;;13.35;5.45;;;7.10;99.90;;;;;;5013009;28;20072;-51
2021/12/18 09:09:35;;;;;;;11.32;4.50;;;7.10;99.90;;;;;;5012996;28;20494;-49
2021/12/18 09:12:00;;;;;;;13.27;4.65;;;7.10;99.90;;;;;;5012565;28;20037;-49
2021/12/18 09:14:26;;;;;;;13.23;4.75;;;7.20;99.90;;;;;;5012603;28;20038;-50
2021/12/18 09:16:54;;;;;;;11.98;4.43;;;7.20;99.90;;;;;;4979345;28;20136;-49
2021/12/18 09:19:20;;;;;;;12.13;5.15;;;7.20;99.90;;;;;;4978722;28;20037;-49
2021/12/18 09:21:46;;;;;;;14.75;5.10;;;7.20;99.90;;;;;;5012722;28;20418;-49
2021/12/18 09:24:12;;;;;;;13.65;5.00;;;7.20;99.90;;;;;;4978721;28;20045;-49
2021/12/18 09:26:38;;;;;;;15.07;5.32;;;7.20;99.90;;;;;;5012520;28;20041;-49
2021/12/18 09:29:03;;;;;;;13.80;5.30;;;7.20;99.90;;;;;;5011772;28;20041;-49
2021/12/18 09:31:29;;;;;;;13.30;4.93;;;7.30;99.90;;;;;;5012074;28;20052;-49
2021/12/18 09:33:55;;;;;;;15.40;5.68;;;7.30;99.90;;;;;;5012289;28;20038;-49
2021/12/18 09:36:21;;;;;;;15.10;5.40;;;7.30;99.90;;;;;;5012662;28;20401;-52
2021/12/18 09:38:46;;;;;;;11.55;4.75;;;7.40;99.90;;;;;;5012664;28;20044;-50
2021/12/18 09:41:13;;;;;;;11.30;5.15;;;7.40;99.90;;;;;;5012410;28;20037;-50
2021/12/18 09:43:38;;;;;;;12.38;4.80;;;7.40;99.90;;;;;;5011086;28;20410;-49
2021/12/18 09:46:09;;;;;;;12.98;5.20;;;7.40;99.90;;;;;;5012194;28;20041;-49
2021/12/18 09:48:37;;;;;;;13.27;5.53;;;7.50;99.90;;;;;;5012449;28;20072;-49
2021/12/18 09:51:08;;;;;;;12.05;5.10;;;7.50;99.90;;;;;;5012182;28;20446;-50
2021/12/18 09:53:35;;;;;;;14.88;5.35;;;7.50;99.90;;;;;;5011713;28;20049;-49
2021/12/18 09:56:01;;;;;;;14.80;5.60;;;7.50;99.90;;;;;;5011932;28;20096;-49
2021/12/18 09:58:27;;;;;;;12.13;4.90;;;7.60;99.90;;;;;;5012200;28;20041;-49
2021/12/18 10:00:52;;;;;;;12.60;5.10;;;7.60;99.90;;;;;;5012492;28;20137;-50
2021/12/18 10:03:18;;;;;;;11.52;4.70;;;7.60;99.90;;;;;;5012017;28;20042;-49
2021/12/18 10:05:44;;;;;;;13.60;5.10;;;7.60;99.90;;;;;;5011972;28;20582;-50
2021/12/18 10:08:21;;;;;;;13.57;5.03;;;7.70;99.90;;;;;;5012043;28;20069;-48
2021/12/18 10:11:03;;;;;;;12.77;4.65;;;7.70;99.90;;;;;;4994483;28;20052;-50
2021/12/18 10:13:31;;;;;;;12.38;4.82;;;7.70;99.90;;;;;;5011019;28;20042;-51
2021/12/18 10:16:11;;;;;;;18.23;5.72;;;7.70;99.90;;;;;;5010180;28;20081;-49
2021/12/18 10:18:38;;;;;;;11.52;4.70;;;7.80;99.90;;;;;;5024630;28;20127;-51
2021/12/18 10:21:14;;;;;;;12.15;4.80;;;7.80;99.90;;;;;;5016736;28;20037;-48
2021/12/18 10:23:42;;;;;;;11.75;4.80;;;7.80;99.90;;;;;;4993933;28;20046;-49
2021/12/18 10:26:08;;;;;;;13.30;4.93;;;7.80;99.90;;;;;;5008657;28;20037;-50
2021/12/18 10:28:45;;;;;;;13.50;5.25;;;7.80;99.90;;;;;;5024085;28;20120;-49
2021/12/18 10:31:11;;;;;;;11.88;5.03;;;7.80;99.90;;;;;;5026765;28;20529;-49
2021/12/18 10:33:37;;;;;;;12.48;5.43;;;7.90;99.90;;;;;;4997217;28;20029;-49
2021/12/18 10:36:04;;;;;;;14.75;5.75;;;7.90;99.90;;;;;;5014169;28;20053;-49
2021/12/18 10:38:54;;;;;;;9.65;4.95;;;7.90;99.90;;;;;;5011538;28;20395;-48
2021/12/18 10:41:34;;;;;;;12.48;5.35;;;8.00;99.90;;;;;;5011369;28;20045;-49
2021/12/18 10:44:08;;;;;;;15.48;5.47;;;8.00;99.90;;;;;;5011201;28;20056;-50
2021/12/18 10:46:43;;;;;;;15.52;5.40;;;8.00;99.90;;;;;;5011703;28;20066;-49
2021/12/18 10:49:17;;;;;;;13.25;5.43;;;8.00;99.90;;;;;;4978265;28;20123;-49
2021/12/18 10:51:46;;;;;;;15.63;6.00;;;8.10;99.90;;;;;;5011439;28;20049;-50
2021/12/18 10:54:21;;;;;;;13.90;5.45;;;8.10;99.90;;;;;;5010752;28;20038;-49
2021/12/18 10:56:52;;;;;;;14.38;5.63;;;8.20;99.90;;;;;;4992257;28;20066;-48
2021/12/18 10:59:36;;;;;;;17.65;5.45;;;8.20;99.90;;;;;;5006281;28;20387;-50
2021/12/18 11:02:05;;;;;;;15.88;5.82;;;8.20;99.90;;;;;;5010256;28;20465;-49
2021/12/18 11:04:40;;;;;;;15.10;5.78;;;8.30;99.90;;;;;;5009596;28;20048;-50
2021/12/18 11:07:24;;;;;;;14.73;5.72;;;8.30;99.90;;;;;;5011398;28;20052;-49
2021/12/18 11:10:12;;;;;;;13.43;5.40;;;8.30;99.90;;;;;;5010943;28;20096;-49
2021/12/18 11:15:21;;;;;;;13.77;5.57;;;8.40;99.90;;;;;;5008248;28;20517;-51
2021/12/18 11:17:48;;;;;;;16.80;5.65;;;8.40;99.90;;;;;;5011624;28;20042;-49
2021/12/18 11:20:14;;;;;;;11.98;5.07;;;8.40;99.90;;;;;;5011891;28;20131;-52
2021/12/18 11:22:41;;;;;;;18.55;5.95;;;8.40;99.90;;;;;;5010863;28;20076;-50
2021/12/18 11:25:10;;;;;;;15.85;5.93;;;8.50;99.90;;;;;;5011254;28;20046;-50
2021/12/18 11:27:37;;;;;;;12.68;5.95;;;8.50;99.90;;;;;;5010455;28;20034;-49
2021/12/18 11:30:12;;;;;;;14.05;6.32;;;8.50;99.90;;;;;;5007580;28;20518;-49
2021/12/18 11:32:41;;;;;;;14.88;5.88;;;8.50;99.90;;;;;;5011658;28;20168;-51
2021/12/18 11:35:21;;;;;;;16.63;5.72;;;8.50;99.90;;;;;;5014989;28;20026;-51
2021/12/18 11:37:49;;;;;;;15.13;5.63;;;8.50;99.90;;;;;;5007275;28;20052;-49
2021/12/18 11:40:19;;;;;;;14.45;5.53;;;8.60;99.90;;;;;;5011720;28;20500;-53
2021/12/18 11:42:45;;;;;;;16.52;6.30;;;8.60;99.90;;;;;;5014067;28;20116;-48
2021/12/18 11:45:12;;;;;;;15.48;5.57;;;8.50;99.90;;;;;;5014852;28;20490;-49
2021/12/18 11:47:39;;;;;;;14.05;6.05;;;8.60;99.90;;;;;;4997389;28;20718;-49
2021/12/18 11:50:24;;;;;;;17.52;6.35;;;8.60;99.90;;;;;;5015119;28;20092;-49
2021/12/18 11:53:06;;;;;;;17.70;6.85;;;8.60;99.90;;;;;;5014334;28;20464;-49
2021/12/18 11:55:49;;;;;;;12.10;5.97;;;8.60;99.90;;;;;;5030430;22;20180;-55
2021/12/18 11:58:16;;;;;;;16.45;6.07;;;8.60;99.90;;;;;;5030973;28;20037;-55
2021/12/18 12:00:51;;;;;;;12.75;5.72;;;8.60;99.90;;;;;;5034457;28;20127;-55
2021/12/18 12:03:40;;;;;;;13.93;5.70;;;8.60;99.90;;;;;;5013990;28;20085;-55
2021/12/18 12:06:24;;;;;;;11.70;5.45;;;8.60;99.90;;;;;;4974712;28;20410;-54
2021/12/18 12:09:13;;;;;;;11.55;3.72;;;8.60;99.90;;;;;;4995822;28;20081;-55
2021/12/18 12:11:50;;;;;;;8.18;3.63;;;8.70;99.90;;;;;;4987308;28;20041;-55
2021/12/18 12:14:15;;;;;;;6.53;3.03;;;8.60;99.90;;;;;;4974836;28;20038;-55
2021/12/18 12:16:44;;;;;;;6.13;2.95;;;8.60;99.90;;;;;;4975818;28;20043;-55
2021/12/18 12:19:43;;;;;;;6.65;2.60;;;8.70;99.90;;;;;;4994137;28;20042;-55
2021/12/18 12:22:28;;;;;;;7.00;3.42;;;8.60;99.90;;;;;;4993362;28;20050;-55
2021/12/18 12:24:59;;;;;;;6.78;2.83;;;8.80;99.90;;;;;;4994192;28;20057;-54
2021/12/18 12:27:55;;;;;;;6.78;2.78;;;8.80;99.90;;;;;;4994212;28;20042;-55
2021/12/18 12:30:42;;;;;;;7.25;2.50;;;8.80;99.90;;;;;;4990906;28;20054;-55
2021/12/18 12:33:10;;;;;;;7.00;2.28;;;8.80;99.90;;;;;;4994007;28;20046;-55
2021/12/18 12:36:14;;;;;;;8.30;2.22;;;8.80;99.90;;;;;;4993762;28;20042;-55
2021/12/18 12:38:53;;;;;;;11.38;7.97;;;8.70;99.90;;;;;;4993769;28;20115;-55
2021/12/18 12:41:40;;;;;;;23.15;20.42;;;8.70;99.90;;;;;;4992849;28;20043;-55
2021/12/18 12:44:35;;;;;;;8.18;6.30;;;8.70;99.90;;;;;;4984351;28;20039;-55
2021/12/18 12:47:24;;;;;;;9.45;6.10;;;8.70;99.90;;;;;;4988205;28;20430;-55
2021/12/18 12:49:52;;;;;;;4.18;2.15;;;8.70;99.90;;;;;;4989513;28;20501;-55
2021/12/18 12:52:20;;;;;;;7.55;3.90;;;8.80;99.90;;;;;;4989709;28;20066;-55
2021/12/18 12:55:02;;;;;;;5.80;2.45;;;8.80;99.90;;;;;;4993402;28;20161;-55
2021/12/18 12:57:29;;;;;;;7.55;2.53;;;8.70;99.90;;;;;;4976435;28;20121;-55
2021/12/18 12:59:58;;;;;;;5.78;2.42;;;8.80;99.90;;;;;;4993873;28;20046;-53
2021/12/18 13:02:25;;;;;;;9.50;2.90;;;8.80;99.90;;;;;;4993368;28;20053;-55
2021/12/18 13:05:12;;;;;;;5.78;2.92;;;8.80;99.90;;;;;;4993617;28;20083;-53
2021/12/18 13:07:45;;;;;;;4.95;2.63;;;8.70;99.90;;;;;;4993386;28;20053;-55
2021/12/18 13:10:15;;;;;;;6.03;2.60;;;8.70;99.90;;;;;;4975852;28;20054;-54
2021/12/18 13:12:51;;;;;;;5.40;2.70;;;8.80;99.90;;;;;;4998074;28;20125;-55
2021/12/18 13:15:17;;;;;;;7.63;3.97;;;8.70;99.90;;;;;;5012854;28;20041;-55
2021/12/18 13:17:43;;;;;;;10.63;7.35;;;8.80;99.90;;;;;;5012945;28;20720;-54
2021/12/18 13:20:09;;;;;;;7.50;3.30;;;8.70;99.90;;;;;;5012594;28;20034;-54
2021/12/18 13:22:36;;;;;;;9.80;3.40;;;8.70;99.90;;;;;;5012821;28;20029;-55
2021/12/18 13:25:06;;;;;;;6.00;3.28;;;8.70;99.90;;;;;;5002483;28;20038;-55
2021/12/18 13:27:33;;;;;;;5.95;3.38;;;8.70;99.90;;;;;;4992377;28;20037;-54
2021/12/18 13:30:34;;;;;;;8.13;3.40;;;8.60;99.90;;;;;;4994802;28;20045;-55
2021/12/18 13:33:04;;;;;;;6.88;3.47;;;8.70;99.90;;;;;;4971427;28;20054;-54
2021/12/18 13:35:34;;;;;;;7.82;3.55;;;8.80;99.90;;;;;;4992975;28;20042;-54
2021/12/18 13:38:05;;;;;;;6.65;3.50;;;8.70;99.90;;;;;;4993193;28;20039;-53
2021/12/18 13:40:38;;;;;;;7.82;3.55;;;8.80;99.90;;;;;;4991987;28;20093;-51
2021/12/18 13:43:04;;;;;;;;;;;8.80;99.90;;;;;;4992080;28;20073;-51
2021/12/18 13:45:30;;;;;;;9.80;3.92;;;8.80;99.90;;;;;;4991295;28;20400;-52